Eddyville, Kentucky
Current Conditions -  °F | °C
As of 10:15 AM on Monday 24 Nov 2014 (Local Time) from K5M9 Reporting Station
Overcast Overcast  
Wind Chill: 37°   Ceiling: 2900
Heat Index: 44°   Visibility: 10mi
Dew Point: 34°   Wind: 15mph
Humidity: 68%   Direction: 240°WSW
Pressure: 29.73"   Gusts: 26mph
Location:  37.09°N, 88.08°W
Report Text: K5M9 241615Z AUTO 24013G23KT 10SM OVC029 07/01 A2973 RMK AO2 T00660011
Loading
Personal Weather Stations






























Interactive Weather Map New forecast layout! Learn more

10-Day Weather Forecast

Advertisements
Track Severe Weather on mobile